Time;durP1;ratioP1;P1;durP2;ratioP2;P2;SDS_P1;SDS_P2;PMS_P1;PMS_P2;Temp;Humidity;BMP_temperature;BMP_pressure;BME280_temperature;BME280_humidity;BME280_pressure;Samples;Min_cycle;Max_cycle;Signal;HPM_P1;HPM_P2
2022/03/28 00:01:19;;;;;;;8.93;5.80;;;;;;;17.04;27.49;97600.72;5134916;27;20092;-32
2022/03/28 00:03:45;;;;;;;8.88;5.97;;;;;;;17.06;27.36;97598.28;5135263;27;20510;-33
2022/03/28 00:06:11;;;;;;;8.40;5.80;;;;;;;17.07;27.33;97596.31;5134754;27;20027;-32
2022/03/28 00:08:37;;;;;;;9.38;6.10;;;;;;;16.99;27.56;97593.03;5134925;27;20045;-32
2022/03/28 00:11:06;;;;;;;8.95;6.32;;;;;;;17.01;27.68;97598.06;5134966;27;20042;-32
2022/03/28 00:13:33;;;;;;;10.30;6.45;;;;;;;17.00;27.67;97591.06;5135016;27;20017;-32
2022/03/28 00:15:59;;;;;;;10.57;6.20;;;;;;;16.97;27.88;97589.19;5134738;27;20068;-33
2022/03/28 00:18:25;;;;;;;9.52;6.20;;;;;;;17.01;27.57;97578.91;5134837;27;20027;-32
2022/03/28 00:20:53;;;;;;;9.48;5.90;;;;;;;17.09;27.47;97594.66;5135014;27;20019;-33
2022/03/28 00:23:19;;;;;;;9.55;6.18;;;;;;;17.01;27.65;97581.63;5134733;27;20019;-33
2022/03/28 00:25:45;;;;;;;7.10;5.35;;;;;;;16.98;27.70;97577.03;5134732;27;20023;-32
2022/03/28 00:28:12;;;;;;;9.32;6.03;;;;;;;16.91;27.68;97571.78;5134605;27;20030;-32
2022/03/28 00:30:38;;;;;;;10.80;6.00;;;;;;;16.97;27.47;97570.78;5134645;27;20019;-33
2022/03/28 00:33:04;;;;;;;9.18;6.00;;;;;;;16.95;27.44;97564.97;5134569;27;20023;-32
2022/03/28 00:35:30;;;;;;;8.90;6.30;;;;;;;16.96;27.42;97563.00;5134470;27;20383;-32
2022/03/28 00:37:56;;;;;;;11.98;7.10;;;;;;;16.95;27.40;97562.22;5134461;27;20034;-32
2022/03/28 00:40:23;;;;;;;11.10;6.82;;;;;;;16.98;27.54;97550.41;5134580;27;20015;-32
2022/03/28 00:42:50;;;;;;;9.75;6.68;;;;;;;17.01;27.39;97554.22;5133604;27;20570;-32
2022/03/28 00:45:16;;;;;;;10.63;7.18;;;;;;;17.03;27.39;97551.81;5133963;27;20035;-33
2022/03/28 00:47:42;;;;;;;12.43;8.32;;;;;;;16.94;27.65;97549.00;5133886;27;20019;-32
2022/03/28 00:50:10;;;;;;;12.18;7.63;;;;;;;17.08;27.31;97551.25;5133757;27;20034;-34
2022/03/28 00:52:37;;;;;;;12.57;8.88;;;;;;;17.15;27.06;97557.28;5133973;27;20023;-32
2022/03/28 00:55:04;;;;;;;13.77;8.90;;;;;;;17.15;27.25;97551.03;5133872;28;20023;-32
2022/03/28 00:57:31;;;;;;;13.57;9.05;;;;;;;17.08;27.35;97556.72;5132402;28;20431;-32
2022/03/28 00:59:58;;;;;;;14.25;8.82;;;;;;;17.03;27.46;97549.84;5132179;28;20026;-32
2022/03/28 01:02:24;;;;;;;14.98;10.93;;;;;;;17.08;27.34;97545.75;5132545;28;20063;-32
2022/03/28 01:04:50;;;;;;;14.82;9.77;;;;;;;17.04;27.62;97545.13;5133326;28;20104;-32
2022/03/28 01:07:17;;;;;;;14.10;10.73;;;;;;;17.09;27.52;97541.81;5133209;28;20031;-32
2022/03/28 01:09:43;;;;;;;13.90;10.55;;;;;;;17.05;27.41;97541.94;5133221;28;20019;-32
2022/03/28 01:12:10;;;;;;;19.33;13.45;;;;;;;16.99;27.66;97534.72;5133835;28;20033;-32
2022/03/28 01:14:36;;;;;;;19.02;12.32;;;;;;;17.08;27.69;97537.53;5134136;28;20129;-32
2022/03/28 01:19:53;;;;;;;18.23;12.70;;;;;;;17.03;27.52;97532.63;5134291;28;20395;-32
2022/03/28 01:22:19;;;;;;;19.08;13.73;;;;;;;17.04;27.69;97536.91;5134360;28;20023;-33
2022/03/28 01:24:46;;;;;;;19.70;13.90;;;;;;;17.02;27.93;97534.59;5133977;28;20160;-33
2022/03/28 01:27:13;;;;;;;17.35;13.95;;;;;;;17.11;27.80;97533.91;5134173;28;20031;-32
2022/03/28 01:29:40;;;;;;;21.05;14.70;;;;;;;17.06;27.76;97537.25;5133924;28;20027;-32
2022/03/28 01:32:05;;;;;;;23.95;14.57;;;;;;;17.03;27.85;97530.66;5134153;28;20080;-32
2022/03/28 01:34:31;;;;;;;22.15;15.15;;;;;;;17.03;27.84;97527.16;5133931;28;20023;-32
2022/03/28 01:36:57;;;;;;;21.20;15.40;;;;;;;17.01;27.94;97529.56;5133912;28;20518;-32
2022/03/28 01:39:22;;;;;;;20.15;14.70;;;;;;;17.01;28.01;97526.81;5133994;28;20440;-32
2022/03/28 01:41:48;;;;;;;20.35;14.77;;;;;;;17.04;28.00;97534.16;5133899;28;20379;-32
2022/03/28 01:44:14;;;;;;;21.63;14.95;;;;;;;17.02;27.89;97531.88;5133972;28;20108;-32
2022/03/28 01:46:45;;;;;;;20.90;15.02;;;;;;;17.04;28.09;97517.72;5115362;28;20030;-32
2022/03/28 01:49:11;;;;;;;21.08;13.77;;;;;;;16.98;28.09;97520.25;5134044;28;20549;-32
2022/03/28 01:51:38;;;;;;;20.92;14.63;;;;;;;16.97;28.07;97515.97;5133878;28;20360;-32
2022/03/28 01:54:04;;;;;;;20.80;14.73;;;;;;;17.00;27.99;97512.34;5136259;27;20019;-33
2022/03/28 01:56:30;;;;;;;20.48;13.88;;;;;;;17.16;27.77;97505.97;5137575;27;20027;-32
2022/03/28 01:58:55;;;;;;;19.08;12.85;;;;;;;17.04;28.05;97518.50;5137925;27;20030;-32
2022/03/28 02:01:21;;;;;;;20.50;13.48;;;;;;;17.03;28.02;97511.47;5137256;27;20043;-32
2022/03/28 02:03:47;;;;;;;17.08;13.02;;;;;;;17.02;28.14;97509.19;5137675;27;20051;-32
2022/03/28 02:06:13;;;;;;;18.48;13.20;;;;;;;17.10;27.85;97519.44;5137493;27;20072;-32
2022/03/28 02:08:39;;;;;;;17.45;13.43;;;;;;;17.09;28.08;97514.41;5137566;27;20027;-32
2022/03/28 02:11:04;;;;;;;20.88;12.98;;;;;;;17.02;28.02;97503.69;5137249;27;20556;-33
2022/03/28 02:13:30;;;;;;;17.30;12.73;;;;;;;17.00;28.04;97506.88;5137304;27;20042;-32
2022/03/28 02:15:55;;;;;;;20.08;13.50;;;;;;;16.95;28.00;97499.22;5137207;27;20072;-33
2022/03/28 02:18:21;;;;;;;21.10;14.70;;;;;;;16.92;27.93;97505.59;5137352;27;20019;-32
2022/03/28 02:20:47;;;;;;;25.98;16.40;;;;;;;16.94;27.85;97502.41;5137055;27;20042;-33
2022/03/28 02:23:12;;;;;;;23.75;15.63;;;;;;;16.95;27.82;97492.97;5137161;27;20023;-33
2022/03/28 02:25:39;;;;;;;21.70;15.07;;;;;;;17.01;27.57;97493.94;5137280;27;20019;-32
2022/03/28 02:28:05;;;;;;;21.92;15.18;;;;;;;16.98;27.78;97497.56;5136917;27;20047;-32
2022/03/28 02:30:31;;;;;;;22.52;15.02;;;;;;;16.93;27.94;97495.41;5136881;27;20039;-32
2022/03/28 02:32:58;;;;;;;20.95;15.07;;;;;;;16.90;27.89;97502.53;5136877;27;20375;-32
2022/03/28 02:35:24;;;;;;;23.33;15.82;;;;;;;16.93;27.99;97500.88;5136858;27;20046;-32
2022/03/28 02:37:50;;;;;;;21.92;14.48;;;;;;;17.01;27.71;97491.19;5136762;27;20392;-32
2022/03/28 02:40:16;;;;;;;20.27;14.13;;;;;;;16.98;27.77;97492.84;5136894;27;20030;-33
2022/03/28 02:42:42;;;;;;;21.63;14.35;;;;;;;16.91;27.85;97487.63;5118302;27;20402;-32
2022/03/28 02:45:09;;;;;;;18.88;13.82;;;;;;;16.85;27.94;97481.91;5136870;27;20035;-32
2022/03/28 02:47:37;;;;;;;22.50;14.70;;;;;;;16.94;27.79;97480.50;5136918;27;20023;-33
2022/03/28 02:50:03;;;;;;;21.65;14.07;;;;;;;16.96;27.73;97483.53;5136358;27;20480;-32
2022/03/28 02:52:29;;;;;;;23.45;14.38;;;;;;;17.02;27.60;97487.25;5136490;27;20023;-32
2022/03/28 02:54:55;;;;;;;20.90;14.25;;;;;;;16.94;27.67;97483.22;5136483;27;20083;-33
2022/03/28 02:57:20;;;;;;;20.50;13.70;;;;;;;17.00;27.38;97486.94;5136488;27;20433;-33
2022/03/28 02:59:46;;;;;;;18.45;13.25;;;;;;;16.96;27.48;97494.50;5136545;27;20047;-33
2022/03/28 03:02:12;;;;;;;21.23;14.02;;;;;;;16.98;27.41;97486.59;5136054;27;20437;-33
2022/03/28 03:04:38;;;;;;;19.33;14.63;;;;;;;16.95;27.34;97482.75;5116815;27;20061;-32
2022/03/28 03:07:04;;;;;;;19.52;13.13;;;;;;;16.90;27.61;97480.59;5136261;27;20387;-32
2022/03/28 03:09:29;;;;;;;23.63;14.55;;;;;;;16.97;27.35;97485.84;5136129;27;20025;-32
2022/03/28 03:11:55;;;;;;;18.55;13.82;;;;;;;16.93;26.97;97479.72;5136461;27;20409;-32
2022/03/28 03:14:21;;;;;;;20.02;13.77;;;;;;;16.82;27.28;97474.56;5136369;27;20075;-32
2022/03/28 03:16:47;;;;;;;20.80;13.65;;;;;;;16.85;27.26;97476.44;5136164;27;20023;-32
2022/03/28 03:19:12;;;;;;;21.77;14.27;;;;;;;16.86;27.23;97471.72;5135920;27;20451;-32
2022/03/28 03:21:38;;;;;;;19.70;13.80;;;;;;;16.89;27.11;97470.84;5136038;27;20106;-32
2022/03/28 03:24:05;;;;;;;20.98;13.20;;;;;;;16.92;26.95;97471.94;5117534;27;20072;-32
2022/03/28 03:26:31;;;;;;;21.63;13.75;;;;;;;16.91;26.92;97473.91;5117406;27;20034;-32
2022/03/28 03:28:58;;;;;;;20.45;13.55;;;;;;;16.96;26.73;97467.84;5135775;27;20114;-33
2022/03/28 03:31:25;;;;;;;17.13;11.98;;;;;;;16.96;26.58;97467.09;5135633;27;20087;-32
2022/03/28 03:33:50;;;;;;;15.88;11.43;;;;;;;16.94;26.50;97470.28;5117297;27;20023;-32
2022/03/28 03:36:16;;;;;;;16.95;11.88;;;;;;;16.91;26.48;97468.44;5135743;27;20379;-32
2022/03/28 03:38:42;;;;;;;17.75;11.45;;;;;;;16.95;26.45;97471.03;5135587;27;20084;-32
2022/03/28 03:41:07;;;;;;;15.65;11.65;;;;;;;16.90;26.24;97468.88;5117038;27;20023;-32
2022/03/28 03:43:33;;;;;;;14.82;10.40;;;;;;;16.92;26.17;97478.19;5135500;27;20475;-32
2022/03/28 03:45:59;;;;;;;14.82;10.82;;;;;;;16.90;26.29;97464.16;5135540;27;20471;-32
2022/03/28 03:48:26;;;;;;;13.63;10.07;;;;;;;16.87;26.32;97471.28;5135397;27;20019;-33
2022/03/28 03:50:53;;;;;;;14.57;10.25;;;;;;;17.06;26.11;97465.97;5135233;27;20106;-32
2022/03/28 03:53:19;;;;;;;16.17;10.45;;;;;;;16.92;25.81;97478.19;5135312;27;20482;-33
2022/03/28 03:55:48;;;;;;;14.18;9.90;;;;;;;16.95;25.92;97474.53;5135246;27;20050;-33
2022/03/28 03:58:14;;;;;;;13.30;9.70;;;;;;;16.95;25.70;97476.50;5135378;27;20053;-32
2022/03/28 04:00:40;;;;;;;13.15;9.77;;;;;;;16.88;25.79;97478.31;5135216;27;20424;-32
2022/03/28 04:03:06;;;;;;;12.70;9.10;;;;;;;16.85;25.60;97478.41;5114639;28;20488;-33
2022/03/28 04:05:32;;;;;;;12.55;9.30;;;;;;;16.88;25.69;97477.53;5114568;28;20023;-33
2022/03/28 04:07:59;;;;;;;13.05;9.27;;;;;;;16.94;25.72;97475.00;5114456;28;20387;-32
2022/03/28 04:10:26;;;;;;;13.45;8.93;;;;;;;16.85;25.55;97472.94;5114402;28;20031;-32
2022/03/28 04:12:52;;;;;;;12.30;8.70;;;;;;;16.98;25.58;97470.94;5114454;28;20045;-32
2022/03/28 04:15:18;;;;;;;13.25;8.88;;;;;;;16.90;25.46;97479.84;5114350;28;20036;-32
2022/03/28 04:17:45;;;;;;;12.52;8.73;;;;;;;16.89;25.60;97481.81;5114245;28;20387;-32
2022/03/28 04:20:13;;;;;;;11.40;8.63;;;;;;;16.93;25.28;97476.22;5114421;28;20019;-32
2022/03/28 04:22:40;;;;;;;12.20;8.48;;;;;;;16.90;25.22;97477.88;5114389;27;20020;-33
2022/03/28 04:25:08;;;;;;;11.65;8.77;;;;;;;16.88;25.30;97481.03;5114249;28;20028;-32
2022/03/28 04:27:35;;;;;;;11.80;8.85;;;;;;;16.84;25.36;97479.63;5114199;28;20048;-33
2022/03/28 04:30:03;;;;;;;13.48;9.40;;;;;;;16.85;25.29;97484.66;5114332;28;20050;-32
2022/03/28 04:32:29;;;;;;;12.30;9.30;;;;;;;16.91;25.24;97489.59;5112880;28;20035;-32
2022/03/28 04:34:55;;;;;;;13.85;9.90;;;;;;;16.94;25.29;97480.50;5114097;28;20375;-32
2022/03/28 04:37:20;;;;;;;13.95;9.18;;;;;;;16.82;25.21;97491.00;5114125;28;20494;-33
2022/03/28 04:39:46;;;;;;;13.25;8.95;;;;;;;16.85;25.21;97479.19;5114401;28;20027;-33
2022/03/28 04:42:12;;;;;;;10.88;8.32;;;;;;;16.84;25.16;97483.13;5114187;28;20035;-32
2022/03/28 04:44:38;;;;;;;13.20;9.32;;;;;;;16.84;25.14;97488.59;5112594;28;20027;-32
2022/03/28 04:47:03;;;;;;;13.55;8.98;;;;;;;16.87;24.82;97482.25;5112680;28;20028;-32
2022/03/28 04:49:29;;;;;;;10.48;7.80;;;;;;;16.85;25.18;97476.44;5113770;28;20050;-33
2022/03/28 04:51:55;;;;;;;15.32;8.88;;;;;;;16.68;25.05;97477.81;5114002;28;20356;-32
2022/03/28 04:54:20;;;;;;;10.95;7.60;;;;;;;16.85;25.02;97475.66;5114297;28;20023;-32
2022/03/28 04:56:46;;;;;;;12.35;7.80;;;;;;;16.83;24.74;97470.63;5113382;28;20085;-35
2022/03/28 04:59:12;;;;;;;10.63;7.90;;;;;;;16.83;24.83;97475.34;5113966;28;20126;-32
2022/03/28 05:01:38;;;;;;;10.77;7.32;;;;;;;16.90;24.99;97472.38;5121624;28;20054;-32
2022/03/28 05:04:04;;;;;;;10.40;8.10;;;;;;;16.93;24.86;97479.72;5134363;28;20097;-33
2022/03/28 05:06:30;;;;;;;12.45;8.57;;;;;;;16.81;24.82;97484.00;5134336;28;20542;-32
2022/03/28 05:08:56;;;;;;;10.73;7.93;;;;;;;16.83;25.00;97484.31;5134241;28;20119;-32
2022/03/28 05:11:22;;;;;;;11.88;7.60;;;;;;;16.82;24.76;97485.53;5134163;28;20023;-32
2022/03/28 05:13:51;;;;;;;12.25;7.70;;;;;;;16.78;24.60;97484.91;5134098;28;20027;-32
2022/03/28 05:16:17;;;;;;;9.48;7.55;;;;;;;16.85;24.63;97481.91;5134111;28;20023;-32
2022/03/28 05:18:44;;;;;;;10.90;7.90;;;;;;;16.82;24.68;97490.25;5134261;28;20023;-32
2022/03/28 05:21:09;;;;;;;9.55;7.38;;;;;;;16.77;24.58;97493.56;5134312;28;20416;-33
2022/03/28 05:23:35;;;;;;;10.13;7.68;;;;;;;16.80;24.51;97489.94;5134164;28;20030;-32
2022/03/28 05:26:02;;;;;;;10.40;7.90;;;;;;;16.79;24.69;97496.63;5134020;28;20493;-32
2022/03/28 05:28:28;;;;;;;12.15;7.05;;;;;;;16.88;24.59;97500.22;5135576;27;20375;-32
2022/03/28 05:30:54;;;;;;;10.55;7.10;;;;;;;16.83;24.38;97489.81;5133399;27;20068;-32
2022/03/28 05:33:21;;;;;;;11.95;7.53;;;;;;;16.78;24.62;97493.13;5120063;27;20077;-32
2022/03/28 05:35:47;;;;;;;13.27;8.13;;;;;;;16.85;24.52;97490.13;5117571;27;20031;-32
2022/03/28 05:38:12;;;;;;;10.65;7.63;;;;;;;16.80;24.40;97498.94;5135917;27;20034;-33
2022/03/28 05:40:38;;;;;;;9.30;7.43;;;;;;;16.81;24.29;97499.69;5135977;27;20034;-32
2022/03/28 05:43:04;;;;;;;10.55;7.38;;;;;;;16.81;24.74;97505.19;5135597;27;20027;-33
2022/03/28 05:45:30;;;;;;;10.18;7.57;;;;;;;16.90;24.47;97501.75;5117501;27;20068;-32
2022/03/28 05:47:55;;;;;;;13.95;8.00;;;;;;;16.81;24.53;97499.69;5115329;27;20058;-32
2022/03/28 05:50:22;;;;;;;11.10;7.88;;;;;;;16.81;24.59;97503.19;5115075;28;20032;-33
2022/03/28 05:52:48;;;;;;;11.35;7.90;;;;;;;16.70;24.71;97516.47;5114853;28;20019;-33
2022/03/28 05:55:14;;;;;;;10.05;7.63;;;;;;;16.74;24.57;97516.34;5118126;27;20071;-32
2022/03/28 05:57:40;;;;;;;10.27;6.72;;;;;;;16.82;24.64;97512.94;5135526;27;20027;-32
2022/03/28 06:00:09;;;;;;;11.25;7.10;;;;;;;16.82;24.43;97512.16;5135448;27;20034;-32
2022/03/28 06:02:35;;;;;;;10.90;6.78;;;;;;;16.82;24.59;97514.91;5134937;27;20047;-34
2022/03/28 06:05:00;;;;;;;10.52;7.28;;;;;;;16.82;24.61;97512.16;5135280;27;20030;-33
2022/03/28 06:07:26;;;;;;;11.50;7.93;;;;;;;16.81;24.61;97518.88;5135221;27;20479;-32
2022/03/28 06:09:51;;;;;;;12.93;7.95;;;;;;;16.66;24.55;97526.78;5135386;27;20031;-33
2022/03/28 06:12:17;;;;;;;12.27;7.47;;;;;;;16.75;24.26;97524.13;5135385;27;20023;-32
2022/03/28 06:14:43;;;;;;;13.07;7.10;;;;;;;16.72;24.37;97522.25;5133856;27;20102;-32
2022/03/28 06:17:09;;;;;;;10.25;7.20;;;;;;;16.80;24.62;97531.03;5135379;27;20092;-33
2022/03/28 06:19:35;;;;;;;10.45;7.18;;;;;;;16.83;24.57;97521.91;5134975;27;20085;-32
2022/03/28 06:22:01;;;;;;;10.85;7.53;;;;;;;16.78;24.69;97520.53;5135173;27;20027;-32
2022/03/28 06:24:26;;;;;;;12.38;7.30;;;;;;;16.83;24.56;97513.69;5114621;27;20111;-33
2022/03/28 06:26:52;;;;;;;12.15;7.80;;;;;;;16.75;24.58;97515.91;5096155;28;20494;-33
2022/03/28 06:29:18;;;;;;;11.90;8.05;;;;;;;16.75;24.33;97515.91;5114276;28;20023;-32
2022/03/28 06:31:44;;;;;;;11.60;7.85;;;;;;;16.77;24.32;97513.50;5114236;28;20024;-33
2022/03/28 06:34:10;;;;;;;10.95;8.27;;;;;;;16.67;24.42;97511.88;5114535;28;20495;-33
2022/03/28 06:36:54;;;;;;;12.82;8.60;;;;;;;16.72;24.31;97514.06;5114480;28;20491;-32
2022/03/28 06:39:20;;;;;;;17.90;8.90;;;;;;;16.74;24.70;97514.38;5114103;28;20094;-32
2022/03/28 06:41:45;;;;;;;14.80;9.98;;;;;;;16.79;24.35;97524.03;5114010;28;20416;-33
2022/03/28 06:44:14;;;;;;;12.30;9.13;;;;;;;16.76;24.51;97522.16;5120292;27;20027;-32
2022/03/28 06:46:42;;;;;;;18.95;10.93;;;;;;;16.78;24.42;97528.75;5136686;27;20474;-32
2022/03/28 06:49:07;;;;;;;18.80;11.15;;;;;;;16.69;24.45;97525.88;5136517;27;20019;-32
2022/03/28 06:51:34;;;;;;;14.45;10.73;;;;;;;16.72;24.49;97527.75;5136463;27;20030;-33
2022/03/28 06:54:02;;;;;;;17.92;11.65;;;;;;;16.74;24.31;97527.31;5136236;27;20034;-34
2022/03/28 06:56:27;;;;;;;15.10;10.98;;;;;;;16.79;24.65;97530.28;5136126;27;20479;-32
2022/03/28 06:58:53;;;;;;;17.38;12.50;;;;;;;16.81;24.47;97530.56;5136525;27;20033;-32
2022/03/28 07:01:19;;;;;;;18.05;12.00;;;;;;;16.75;24.62;97531.59;5136038;27;20043;-32
2022/03/28 07:03:45;;;;;;;21.00;12.77;;;;;;;16.81;24.27;97529.84;5136352;27;20080;-32
2022/03/28 07:06:11;;;;;;;20.38;12.95;;;;;;;16.84;24.42;97529.69;5136411;27;20068;-32
2022/03/28 07:08:36;;;;;;;19.95;12.90;;;;;;;16.69;24.59;97531.34;5136212;27;20023;-32
2022/03/28 07:11:03;;;;;;;17.27;12.40;;;;;;;16.75;24.38;97529.63;5136199;27;20084;-32
2022/03/28 07:13:29;;;;;;;18.95;12.63;;;;;;;16.81;24.36;97532.56;5136043;27;20023;-32
2022/03/28 07:15:54;;;;;;;23.02;12.80;;;;;;;16.79;24.56;97524.78;5136048;27;20047;-33
2022/03/28 07:18:20;;;;;;;20.20;13.43;;;;;;;16.77;24.78;97520.97;5136010;27;20450;-32
2022/03/28 07:20:46;;;;;;;21.63;13.82;;;;;;;16.63;24.56;97533.13;5136810;27;20015;-32
2022/03/28 07:23:13;;;;;;;23.38;15.13;;;;;;;16.71;24.60;97537.16;5135793;27;20023;-33
2022/03/28 07:25:39;;;;;;;21.65;14.95;;;;;;;16.78;24.49;97531.47;5136237;27;20474;-33
2022/03/28 07:28:09;;;;;;;21.30;14.23;;;;;;;16.84;24.75;97537.91;5136074;27;20026;-32
2022/03/28 07:30:36;;;;;;;22.30;15.80;;;;;;;16.78;24.60;97533.44;5135702;27;20030;-32
2022/03/28 07:33:03;;;;;;;24.48;17.67;;;;;;;16.74;24.55;97528.06;5135706;27;20030;-32
2022/03/28 07:35:29;;;;;;;22.77;15.68;;;;;;;16.76;24.83;97536.63;5135584;27;20023;-32
2022/03/28 07:37:55;;;;;;;26.92;17.48;;;;;;;16.70;24.77;97540.34;5135628;27;20526;-32
2022/03/28 07:40:21;;;;;;;29.30;18.85;;;;;;;16.62;24.34;97539.81;5135622;27;20028;-32
2022/03/28 07:42:47;;;;;;;27.52;18.20;;;;;;;16.73;24.62;97540.25;5135438;27;20022;-32
2022/03/28 07:45:14;;;;;;;27.40;18.05;;;;;;;16.75;24.89;97540.56;5135453;27;20030;-32
2022/03/28 07:47:40;;;;;;;24.67;16.73;;;;;;;16.77;24.87;97551.84;5135612;27;20505;-32
2022/03/28 07:50:07;;;;;;;29.40;20.38;;;;;;;16.14;24.72;97547.09;5133969;27;20035;-31
2022/03/28 07:52:34;;;;;;;30.20;20.05;;;;;;;15.76;24.58;97544.28;5134874;27;20027;-31
2022/03/28 07:55:00;;;;;;;30.50;20.25;;;;;;;16.12;25.91;97548.72;5135693;27;20105;-32
2022/03/28 07:57:26;;;;;;;27.50;19.48;;;;;;;16.51;26.14;97553.81;5135178;27;20499;-31
2022/03/28 07:59:53;;;;;;;28.77;19.45;;;;;;;16.56;25.13;97554.47;5135118;27;20030;-31
2022/03/28 08:02:18;;;;;;;32.55;19.08;;;;;;;16.62;25.12;97548.03;5135061;27;20053;-31
2022/03/28 08:04:45;;;;;;;30.48;19.77;;;;;;;16.63;25.11;97552.31;5135072;27;20110;-31
2022/03/28 08:07:12;;;;;;;28.15;19.75;;;;;;;16.69;25.12;97558.75;5135032;27;20382;-33
2022/03/28 08:09:42;;;;;;;30.13;19.80;;;;;;;16.72;25.23;97555.13;5134968;27;20023;-31
2022/03/28 08:12:10;;;;;;;27.40;19.30;;;;;;;16.61;25.11;97554.69;5116511;27;20111;-31
2022/03/28 08:14:37;;;;;;;29.40;18.70;;;;;;;16.69;25.18;97556.00;5135267;27;20054;-31
2022/03/28 08:17:04;;;;;;;26.08;18.77;;;;;;;16.75;25.26;97562.47;5135180;27;20466;-31
2022/03/28 08:19:29;;;;;;;29.50;19.35;;;;;;;16.74;25.43;97554.69;5134799;27;20031;-32
2022/03/28 08:21:55;;;;;;;28.20;19.02;;;;;;;16.76;25.40;97552.28;5135119;27;20076;-31
2022/03/28 08:24:21;;;;;;;29.42;18.33;;;;;;;16.74;25.63;97546.47;5134496;27;20031;-31
2022/03/28 08:26:49;;;;;;;26.17;17.90;;;;;;;16.70;25.70;97552.06;5134870;27;20019;-32
2022/03/28 08:29:15;;;;;;;30.92;18.55;;;;;;;16.79;25.68;97557.66;5134693;27;20055;-31
2022/03/28 08:31:41;;;;;;;32.85;19.52;;;;;;;16.80;25.57;97564.69;5134627;27;20027;-31
2022/03/28 08:34:07;;;;;;;26.33;18.27;;;;;;;16.80;25.55;97561.94;5134596;27;20408;-31
2022/03/28 08:36:34;;;;;;;28.98;18.80;;;;;;;16.83;25.67;97557.53;5116077;27;20470;-31
2022/03/28 08:39:00;;;;;;;24.33;17.25;;;;;;;16.79;25.84;97562.38;5134600;27;20034;-31
2022/03/28 08:41:27;;;;;;;25.73;18.80;;;;;;;16.81;25.79;97566.19;5134629;27;20027;-32
2022/03/28 08:43:53;;;;;;;25.90;16.25;;;;;;;16.84;25.42;97564.53;5126734;27;20533;-31
2022/03/28 08:46:19;;;;;;;21.88;13.13;;;;;;;16.70;24.60;97560.28;5112519;28;20031;-31
2022/03/28 08:48:45;;;;;;;21.92;14.52;;;;;;;16.80;25.21;97559.22;5113971;28;20031;-31
2022/03/28 08:51:16;;;;;;;24.63;16.48;;;;;;;16.75;25.25;97564.44;5113741;28;20095;-31
2022/03/28 08:53:44;;;;;;;17.85;11.85;;;;;;;16.68;25.35;97573.69;5114035;28;20020;-31
2022/03/28 08:56:09;;;;;;;21.60;15.40;;;;;;;16.82;25.83;97565.00;5113787;28;20031;-31
2022/03/28 08:58:41;;;;;;;22.95;16.58;;;;;;;16.80;25.88;97566.66;5113836;28;20015;-31
2022/03/28 09:01:08;;;;;;;39.72;17.27;;;;;;;16.81;26.08;97565.44;5113622;28;20091;-31
2022/03/28 09:03:47;;;;;;;26.85;18.17;;;;;;;16.74;26.03;97563.69;5099417;28;20451;-31
2022/03/28 09:06:27;;;;;;;22.27;14.63;;;;;;;16.87;26.00;97553.47;5118117;28;20108;-31
2022/03/28 09:08:53;;;;;;;22.75;14.13;;;;;;;16.94;25.73;97565.44;5118224;28;20494;-31
2022/03/28 09:11:20;;;;;;;23.52;15.77;;;;;;;16.94;25.86;97563.44;5117953;28;20028;-32
2022/03/28 09:13:46;;;;;;;26.48;16.65;;;;;;;16.92;25.81;97567.84;5117869;28;20034;-31
2022/03/28 09:16:23;;;;;;;21.70;14.20;;;;;;;16.73;25.82;97564.13;5117824;28;20027;-31
2022/03/28 09:18:56;;;;;;;21.67;14.32;;;;;;;16.93;25.78;97559.19;5117917;28;20019;-31
2022/03/28 09:21:24;;;;;;;21.67;14.63;;;;;;;17.01;25.83;97567.94;5117797;28;20026;-31
2022/03/28 09:23:51;;;;;;;21.67;14.52;;;;;;;16.99;25.72;97562.13;5117728;28;20098;-32
2022/03/28 09:26:18;;;;;;;18.73;13.02;;;;;;;16.97;25.68;97562.56;5099216;28;20027;-31
2022/03/28 09:28:58;;;;;;;17.08;12.90;;;;;;;17.05;26.00;97563.13;5117893;28;20023;-31
2022/03/28 09:31:35;;;;;;;19.50;12.68;;;;;;;16.93;25.74;97558.41;5117597;28;20043;-31
2022/03/28 09:34:06;;;;;;;19.17;12.38;;;;;;;17.08;25.73;97557.50;5117519;28;20023;-32
2022/03/28 09:36:49;;;;;;;19.77;13.57;;;;;;;17.06;26.07;97548.19;5117468;28;20026;-31
2022/03/28 09:39:29;;;;;;;15.63;9.82;;;;;;;16.93;25.96;97552.94;5117548;28;20425;-32
2022/03/28 09:42:01;;;;;;;14.15;11.30;;;;;;;17.00;25.28;97552.69;5117339;28;20016;-31
2022/03/28 09:44:39;;;;;;;15.18;10.40;;;;;;;17.04;25.56;97561.56;5117344;28;20028;-31
2022/03/28 09:47:16;;;;;;;19.33;13.27;;;;;;;17.18;25.26;97550.88;5117305;28;20408;-31
2022/03/28 09:49:43;;;;;;;17.63;10.85;;;;;;;17.16;25.12;97547.06;5098971;28;20027;-33
2022/03/28 09:52:17;;;;;;;16.05;9.43;;;;;;;17.09;25.15;97552.78;5117143;28;20046;-31
2022/03/28 09:54:45;;;;;;;21.77;11.95;;;;;;;17.19;25.37;97552.41;5117451;28;20472;-32
2022/03/28 09:57:12;;;;;;;16.02;11.55;;;;;;;17.17;25.37;97556.84;5117309;28;20023;-31
2022/03/28 09:59:40;;;;;;;13.57;9.88;;;;;;;17.03;24.98;97549.84;5117109;28;20023;-31
2022/03/28 10:02:21;;;;;;;16.67;9.75;;;;;;;17.17;25.19;97548.63;5116749;28;20043;-31
2022/03/28 10:04:49;;;;;;;17.50;10.43;;;;;;;17.20;25.49;97545.72;5116951;28;20023;-32
2022/03/28 10:07:16;;;;;;;12.63;9.30;;;;;;;17.15;25.10;97548.28;5098797;28;20030;-31
2022/03/28 10:09:42;;;;;;;13.55;9.25;;;;;;;17.18;24.96;97528.97;5116577;28;20055;-31
2022/03/28 10:12:08;;;;;;;15.75;8.73;;;;;;;17.19;25.32;97529.72;5116905;28;20096;-31
2022/03/28 10:14:34;;;;;;;19.65;9.70;;;;;;;17.28;25.29;97526.31;5116256;28;20051;-33
2022/03/28 10:17:04;;;;;;;14.52;8.40;;;;;;;17.21;24.88;97527.31;5116881;28;20387;-31
2022/03/28 10:19:37;;;;;;;19.55;8.65;;;;;;;17.25;25.10;97527.97;5116949;28;20383;-31
2022/03/28 10:22:08;;;;;;;17.63;8.13;;;;;;;17.29;25.15;97528.63;5116695;28;20023;-31
2022/03/28 10:24:35;;;;;;;14.27;8.23;;;;;;;17.24;25.08;97524.47;5116671;28;20452;-32
2022/03/28 10:27:02;;;;;;;13.52;8.13;;;;;;;17.29;25.41;97516.88;5116544;28;20023;-32
2022/03/28 10:29:39;;;;;;;10.85;7.65;;;;;;;17.35;25.18;97520.56;5116401;28;20069;-32
2022/03/28 10:32:16;;;;;;;14.30;8.50;;;;;;;17.37;25.11;97509.94;5116551;28;20073;-32
2022/03/28 10:34:48;;;;;;;11.30;7.72;;;;;;;17.28;25.31;97513.38;5116441;28;20080;-31
2022/03/28 10:37:37;;;;;;;11.27;7.83;;;;;;;17.23;25.15;97508.44;5116310;28;20425;-31
2022/03/28 10:40:15;;;;;;;11.82;7.10;;;;;;;17.28;25.20;97507.88;5116107;28;20091;-31
2022/03/28 10:42:59;;;;;;;11.38;7.38;;;;;;;17.34;25.35;97506.09;5116183;28;20027;-32
2022/03/28 10:45:56;;;;;;;12.90;8.25;;;;;;;17.31;25.33;97506.25;5116174;28;20016;-31
2022/03/28 10:48:48;;;;;;;15.70;7.60;;;;;;;17.34;25.47;97494.38;5116085;28;20634;-31
2022/03/28 10:51:26;;;;;;;10.87;7.40;;;;;;;17.32;25.43;97492.06;5115984;28;20076;-31
2022/03/28 10:54:06;;;;;;;13.43;7.97;;;;;;;17.35;25.28;97488.44;5116305;28;20100;-31
2022/03/28 10:56:38;;;;;;;11.93;7.85;;;;;;;17.28;25.14;97485.19;5115968;28;20019;-32
2022/03/28 10:59:08;;;;;;;12.02;7.55;;;;;;;17.36;25.13;97479.00;5115944;28;20093;-32
2022/03/28 11:01:38;;;;;;;14.32;7.45;;;;;;;17.36;25.28;97479.00;5115739;28;20120;-32
2022/03/28 11:04:12;;;;;;;15.57;7.88;;;;;;;17.33;25.27;97477.16;5133524;27;20456;-31
2022/03/28 11:07:01;;;;;;;12.20;7.30;;;;;;;17.37;25.33;97469.56;5135304;27;20034;-31
2022/03/28 11:09:49;;;;;;;12.15;7.55;;;;;;;17.40;24.99;97462.44;5118109;27;20114;-31
2022/03/28 11:12:30;;;;;;;18.00;6.70;;;;;;;17.45;24.86;97465.34;5117750;27;20058;-31
2022/03/28 11:15:00;;;;;;;9.48;6.68;;;;;;;17.20;24.67;97465.47;5136239;27;20034;-31
2022/03/28 11:17:30;;;;;;;15.00;7.05;;;;;;;17.31;24.62;97462.38;5136125;27;20061;-32
2022/03/28 11:20:18;;;;;;;16.02;6.68;;;;;;;17.43;24.67;97454.06;5136162;27;20018;-32
2022/03/28 11:22:49;;;;;;;13.77;6.13;;;;;;;17.35;24.39;97452.03;5136091;27;20030;-31
2022/03/28 11:25:41;;;;;;;15.13;6.13;;;;;;;17.23;24.36;97448.91;5135100;27;20071;-31
2022/03/28 11:28:18;;;;;;;13.35;5.88;;;;;;;17.35;24.44;97449.28;5135669;27;20105;-32